<?xml version="1.0" encoding="UTF-8"?>
<gpx version="1.0" creator="Gaggle https://github.com/geeksville/Gaggle" xmlns:xsi="http://www.w3.org/2001/XMLSchema-instance" xmlns="http://www.topografix.com/GPX/1/0" xsi:schemaLocation="http://www.topografix.com/GPX/1/0 http://www.topografix.com/GPX/1/0/gpx.xsd">
<trk>
	<name>Jorgev's flight</name>
	<desc>
	Pilot name:	Jorgev
	Pilot ID:	
	Glider type:	Rush 2
	</desc>
	<trkseg>
		<trkpt lat="42.873294" lon="-5.374927">
			<ele>1607.000000</ele>
		<time>2015-12-12T03:30:21Z</time>
		</trkpt>

		<trkpt lat="42.872990" lon="-5.374589">
			<ele>1597.000000</ele>
		<time>2015-12-12T03:34:06Z</time>
		</trkpt>

		<trkpt lat="42.872862" lon="-5.374373">
			<ele>1592.000000</ele>
		<time>2015-12-12T03:34:09Z</time>
		</trkpt>

		<trkpt lat="42.872758" lon="-5.373997">
			<ele>1587.000000</ele>
		<time>2015-12-12T03:34:13Z</time>
		</trkpt>

		<trkpt lat="42.872659" lon="-5.373755">
			<ele>1583.000000</ele>
		<time>2015-12-12T03:34:16Z</time>
		</trkpt>

		<trkpt lat="42.872558" lon="-5.373484">
			<ele>1583.000000</ele>
		<time>2015-12-12T03:34:19Z</time>
		</trkpt>

		<trkpt lat="42.872461" lon="-5.373245">
			<ele>1582.000000</ele>
		<time>2015-12-12T03:34:22Z</time>
		</trkpt>

		<trkpt lat="42.872410" lon="-5.372962">
			<ele>1580.000000</ele>
		<time>2015-12-12T03:34:25Z</time>
		</trkpt>

		<trkpt lat="42.872463" lon="-5.372677">
			<ele>1576.000000</ele>
		<time>2015-12-12T03:34:28Z</time>
		</trkpt>

		<trkpt lat="42.872561" lon="-5.372379">
			<ele>1574.000000</ele>
		<time>2015-12-12T03:34:31Z</time>
		</trkpt>

		<trkpt lat="42.872691" lon="-5.372127">
			<ele>1576.000000</ele>
		<time>2015-12-12T03:34:34Z</time>
		</trkpt>

		<trkpt lat="42.872823" lon="-5.371874">
			<ele>1575.000000</ele>
		<time>2015-12-12T03:34:37Z</time>
		</trkpt>

		<trkpt lat="42.872889" lon="-5.371537">
			<ele>1575.000000</ele>
		<time>2015-12-12T03:34:41Z</time>
		</trkpt>

		<trkpt lat="42.872826" lon="-5.371294">
			<ele>1572.000000</ele>
		<time>2015-12-12T03:34:44Z</time>
		</trkpt>

		<trkpt lat="42.872711" lon="-5.371130">
			<ele>1569.000000</ele>
		<time>2015-12-12T03:34:47Z</time>
		</trkpt>

		<trkpt lat="42.872552" lon="-5.370937">
			<ele>1566.000000</ele>
		<time>2015-12-12T03:34:50Z</time>
		</trkpt>

		<trkpt lat="42.872431" lon="-5.370708">
			<ele>1564.000000</ele>
		<time>2015-12-12T03:34:53Z</time>
		</trkpt>

		<trkpt lat="42.872309" lon="-5.370468">
			<ele>1559.000000</ele>
		<time>2015-12-12T03:34:56Z</time>
		</trkpt>

		<trkpt lat="42.872183" lon="-5.370242">
			<ele>1555.000000</ele>
		<time>2015-12-12T03:34:59Z</time>
		</trkpt>

		<trkpt lat="42.872037" lon="-5.370031">
			<ele>1549.000000</ele>
		<time>2015-12-12T03:35:02Z</time>
		</trkpt>

		<trkpt lat="42.871870" lon="-5.369846">
			<ele>1547.000000</ele>
		<time>2015-12-12T03:35:05Z</time>
		</trkpt>

		<trkpt lat="42.871737" lon="-5.369635">
			<ele>1542.000000</ele>
		<time>2015-12-12T03:35:08Z</time>
		</trkpt>

		<trkpt lat="42.871648" lon="-5.369397">
			<ele>1542.000000</ele>
		<time>2015-12-12T03:35:11Z</time>
		</trkpt>

		<trkpt lat="42.871595" lon="-5.369102">
			<ele>1539.000000</ele>
		<time>2015-12-12T03:35:14Z</time>
		</trkpt>

		<trkpt lat="42.871517" lon="-5.368869">
			<ele>1537.000000</ele>
		<time>2015-12-12T03:35:17Z</time>
		</trkpt>

		<trkpt lat="42.871473" lon="-5.368649">
			<ele>1531.000000</ele>
		<time>2015-12-12T03:35:20Z</time>
		</trkpt>

		<trkpt lat="42.871400" lon="-5.368427">
			<ele>1527.000000</ele>
		<time>2015-12-12T03:35:23Z</time>
		</trkpt>

		<trkpt lat="42.871299" lon="-5.368236">
			<ele>1526.000000</ele>
		<time>2015-12-12T03:35:26Z</time>
		</trkpt>

		<trkpt lat="42.871216" lon="-5.367985">
			<ele>1522.000000</ele>
		<time>2015-12-12T03:35:29Z</time>
		</trkpt>

		<trkpt lat="42.871222" lon="-5.367751">
			<ele>1523.000000</ele>
		<time>2015-12-12T03:35:32Z</time>
		</trkpt>

		<trkpt lat="42.871289" lon="-5.367543">
			<ele>1523.000000</ele>
		<time>2015-12-12T03:35:35Z</time>
		</trkpt>

		<trkpt lat="42.871383" lon="-5.367353">
			<ele>1523.000000</ele>
		<time>2015-12-12T03:35:38Z</time>
		</trkpt>

		<trkpt lat="42.871402" lon="-5.367146">
			<ele>1518.000000</ele>
		<time>2015-12-12T03:35:41Z</time>
		</trkpt>

		<trkpt lat="42.871260" lon="-5.366950">
			<ele>1517.000000</ele>
		<time>2015-12-12T03:35:44Z</time>
		</trkpt>

		<trkpt lat="42.871079" lon="-5.367003">
			<ele>1516.000000</ele>
		<time>2015-12-12T03:35:47Z</time>
		</trkpt>

		<trkpt lat="42.870903" lon="-5.367182">
			<ele>1510.000000</ele>
		<time>2015-12-12T03:35:50Z</time>
		</trkpt>

		<trkpt lat="42.870823" lon="-5.367507">
			<ele>1506.000000</ele>
		<time>2015-12-12T03:35:53Z</time>
		</trkpt>

		<trkpt lat="42.870836" lon="-5.367850">
			<ele>1506.000000</ele>
		<time>2015-12-12T03:35:56Z</time>
		</trkpt>

		<trkpt lat="42.870839" lon="-5.368234">
			<ele>1501.000000</ele>
		<time>2015-12-12T03:35:59Z</time>
		</trkpt>

		<trkpt lat="42.870732" lon="-5.368599">
			<ele>1496.000000</ele>
		<time>2015-12-12T03:36:02Z</time>
		</trkpt>

		<trkpt lat="42.870568" lon="-5.368746">
			<ele>1491.000000</ele>
		<time>2015-12-12T03:36:05Z</time>
		</trkpt>

		<trkpt lat="42.870366" lon="-5.368876">
			<ele>1487.000000</ele>
		<time>2015-12-12T03:36:08Z</time>
		</trkpt>

		<trkpt lat="42.870140" lon="-5.368935">
			<ele>1483.000000</ele>
		<time>2015-12-12T03:36:11Z</time>
		</trkpt>

		<trkpt lat="42.869943" lon="-5.368864">
			<ele>1483.000000</ele>
		<time>2015-12-12T03:36:14Z</time>
		</trkpt>

		<trkpt lat="42.869808" lon="-5.368715">
			<ele>1479.000000</ele>
		<time>2015-12-12T03:36:17Z</time>
		</trkpt>

		<trkpt lat="42.869697" lon="-5.368533">
			<ele>1477.000000</ele>
		<time>2015-12-12T03:36:20Z</time>
		</trkpt>

		<trkpt lat="42.869636" lon="-5.368320">
			<ele>1471.000000</ele>
		<time>2015-12-12T03:36:23Z</time>
		</trkpt>

		<trkpt lat="42.869587" lon="-5.368092">
			<ele>1466.000000</ele>
		<time>2015-12-12T03:36:26Z</time>
		</trkpt>

		<trkpt lat="42.869437" lon="-5.367875">
			<ele>1462.000000</ele>
		<time>2015-12-12T03:36:29Z</time>
		</trkpt>

		<trkpt lat="42.869209" lon="-5.367881">
			<ele>1458.000000</ele>
		<time>2015-12-12T03:36:32Z</time>
		</trkpt>

		<trkpt lat="42.869012" lon="-5.368121">
			<ele>1453.000000</ele>
		<time>2015-12-12T03:36:35Z</time>
		</trkpt>

		<trkpt lat="42.868913" lon="-5.368441">
			<ele>1450.000000</ele>
		<time>2015-12-12T03:36:38Z</time>
		</trkpt>

		<trkpt lat="42.868855" lon="-5.368825">
			<ele>1445.000000</ele>
		<time>2015-12-12T03:36:41Z</time>
		</trkpt>

		<trkpt lat="42.868724" lon="-5.369167">
			<ele>1443.000000</ele>
		<time>2015-12-12T03:36:44Z</time>
		</trkpt>

		<trkpt lat="42.868509" lon="-5.369405">
			<ele>1440.000000</ele>
		<time>2015-12-12T03:36:47Z</time>
		</trkpt>

		<trkpt lat="42.868259" lon="-5.369424">
			<ele>1436.000000</ele>
		<time>2015-12-12T03:36:50Z</time>
		</trkpt>

		<trkpt lat="42.868089" lon="-5.369248">
			<ele>1433.000000</ele>
		<time>2015-12-12T03:36:53Z</time>
		</trkpt>

		<trkpt lat="42.868003" lon="-5.368987">
			<ele>1429.000000</ele>
		<time>2015-12-12T03:36:56Z</time>
		</trkpt>

		<trkpt lat="42.867912" lon="-5.368659">
			<ele>1424.000000</ele>
		<time>2015-12-12T03:37:00Z</time>
		</trkpt>

		<trkpt lat="42.867832" lon="-5.368400">
			<ele>1419.000000</ele>
		<time>2015-12-12T03:37:03Z</time>
		</trkpt>

		<trkpt lat="42.867750" lon="-5.368143">
			<ele>1415.000000</ele>
		<time>2015-12-12T03:37:06Z</time>
		</trkpt>

		<trkpt lat="42.867645" lon="-5.367886">
			<ele>1409.000000</ele>
		<time>2015-12-12T03:37:09Z</time>
		</trkpt>

		<trkpt lat="42.867536" lon="-5.367656">
			<ele>1406.000000</ele>
		<time>2015-12-12T03:37:12Z</time>
		</trkpt>

		<trkpt lat="42.867431" lon="-5.367426">
			<ele>1402.000000</ele>
		<time>2015-12-12T03:37:15Z</time>
		</trkpt>

		<trkpt lat="42.867351" lon="-5.367187">
			<ele>1398.000000</ele>
		<time>2015-12-12T03:37:18Z</time>
		</trkpt>

		<trkpt lat="42.867310" lon="-5.366935">
			<ele>1394.000000</ele>
		<time>2015-12-12T03:37:21Z</time>
		</trkpt>

		<trkpt lat="42.867287" lon="-5.366678">
			<ele>1390.000000</ele>
		<time>2015-12-12T03:37:24Z</time>
		</trkpt>

		<trkpt lat="42.867286" lon="-5.366406">
			<ele>1386.000000</ele>
		<time>2015-12-12T03:37:27Z</time>
		</trkpt>

		<trkpt lat="42.867275" lon="-5.366111">
			<ele>1382.000000</ele>
		<time>2015-12-12T03:37:30Z</time>
		</trkpt>

		<trkpt lat="42.867258" lon="-5.365833">
			<ele>1377.000000</ele>
		<time>2015-12-12T03:37:33Z</time>
		</trkpt>

		<trkpt lat="42.867212" lon="-5.365564">
			<ele>1373.000000</ele>
		<time>2015-12-12T03:37:36Z</time>
		</trkpt>

		<trkpt lat="42.867110" lon="-5.365337">
			<ele>1371.000000</ele>
		<time>2015-12-12T03:37:39Z</time>
		</trkpt>

		<trkpt lat="42.866970" lon="-5.365113">
			<ele>1366.000000</ele>
		<time>2015-12-12T03:37:42Z</time>
		</trkpt>

		<trkpt lat="42.866823" lon="-5.364940">
			<ele>1362.000000</ele>
		<time>2015-12-12T03:37:45Z</time>
		</trkpt>

		<trkpt lat="42.866674" lon="-5.364747">
			<ele>1358.000000</ele>
		<time>2015-12-12T03:37:48Z</time>
		</trkpt>

		<trkpt lat="42.866536" lon="-5.364548">
			<ele>1356.000000</ele>
		<time>2015-12-12T03:37:51Z</time>
		</trkpt>

		<trkpt lat="42.866450" lon="-5.364309">
			<ele>1353.000000</ele>
		<time>2015-12-12T03:37:54Z</time>
		</trkpt>

		<trkpt lat="42.866385" lon="-5.364065">
			<ele>1348.000000</ele>
		<time>2015-12-12T03:37:57Z</time>
		</trkpt>

		<trkpt lat="42.866336" lon="-5.363818">
			<ele>1345.000000</ele>
		<time>2015-12-12T03:38:00Z</time>
		</trkpt>

		<trkpt lat="42.866319" lon="-5.363550">
			<ele>1341.000000</ele>
		<time>2015-12-12T03:38:03Z</time>
		</trkpt>

		<trkpt lat="42.866312" lon="-5.363255">
			<ele>1337.000000</ele>
		<time>2015-12-12T03:38:06Z</time>
		</trkpt>

		<trkpt lat="42.866322" lon="-5.362964">
			<ele>1337.000000</ele>
		<time>2015-12-12T03:38:09Z</time>
		</trkpt>

		<trkpt lat="42.866354" lon="-5.362657">
			<ele>1335.000000</ele>
		<time>2015-12-12T03:38:12Z</time>
		</trkpt>

		<trkpt lat="42.866414" lon="-5.362395">
			<ele>1332.000000</ele>
		<time>2015-12-12T03:38:15Z</time>
		</trkpt>

		<trkpt lat="42.866515" lon="-5.362125">
			<ele>1328.000000</ele>
		<time>2015-12-12T03:38:18Z</time>
		</trkpt>

		<trkpt lat="42.866599" lon="-5.361861">
			<ele>1326.000000</ele>
		<time>2015-12-12T03:38:21Z</time>
		</trkpt>

		<trkpt lat="42.866510" lon="-5.361592">
			<ele>1321.000000</ele>
		<time>2015-12-12T03:38:24Z</time>
		</trkpt>

		<trkpt lat="42.866345" lon="-5.361399">
			<ele>1318.000000</ele>
		<time>2015-12-12T03:38:27Z</time>
		</trkpt>

		<trkpt lat="42.866137" lon="-5.361220">
			<ele>1313.000000</ele>
		<time>2015-12-12T03:38:30Z</time>
		</trkpt>

		<trkpt lat="42.865914" lon="-5.361121">
			<ele>1310.000000</ele>
		<time>2015-12-12T03:38:33Z</time>
		</trkpt>

		<trkpt lat="42.865698" lon="-5.361003">
			<ele>1306.000000</ele>
		<time>2015-12-12T03:38:36Z</time>
		</trkpt>

		<trkpt lat="42.865486" lon="-5.360923">
			<ele>1302.000000</ele>
		<time>2015-12-12T03:38:39Z</time>
		</trkpt>

		<trkpt lat="42.865255" lon="-5.360846">
			<ele>1297.000000</ele>
		<time>2015-12-12T03:38:42Z</time>
		</trkpt>

		<trkpt lat="42.865051" lon="-5.360783">
			<ele>1290.000000</ele>
		<time>2015-12-12T03:38:45Z</time>
		</trkpt>

		<trkpt lat="42.864810" lon="-5.360769">
			<ele>1286.000000</ele>
		<time>2015-12-12T03:38:48Z</time>
		</trkpt>

		<trkpt lat="42.864599" lon="-5.360783">
			<ele>1283.000000</ele>
		<time>2015-12-12T03:38:51Z</time>
		</trkpt>

		<trkpt lat="42.864402" lon="-5.360676">
			<ele>1281.000000</ele>
		<time>2015-12-12T03:38:54Z</time>
		</trkpt>

		<trkpt lat="42.864277" lon="-5.360454">
			<ele>1274.000000</ele>
		<time>2015-12-12T03:38:57Z</time>
		</trkpt>

		<trkpt lat="42.864186" lon="-5.360186">
			<ele>1270.000000</ele>
		<time>2015-12-12T03:39:00Z</time>
		</trkpt>

		<trkpt lat="42.864135" lon="-5.359936">
			<ele>1267.000000</ele>
		<time>2015-12-12T03:39:03Z</time>
		</trkpt>

		<trkpt lat="42.864015" lon="-5.359699">
			<ele>1259.000000</ele>
		<time>2015-12-12T03:39:06Z</time>
		</trkpt>

		<trkpt lat="42.863821" lon="-5.359510">
			<ele>1257.000000</ele>
		<time>2015-12-12T03:39:09Z</time>
		</trkpt>

		<trkpt lat="42.863610" lon="-5.359454">
			<ele>1253.000000</ele>
		<time>2015-12-12T03:39:12Z</time>
		</trkpt>

		<trkpt lat="42.863381" lon="-5.359520">
			<ele>1250.000000</ele>
		<time>2015-12-12T03:39:15Z</time>
		</trkpt>

		<trkpt lat="42.863177" lon="-5.359668">
			<ele>1245.000000</ele>
		<time>2015-12-12T03:39:18Z</time>
		</trkpt>

		<trkpt lat="42.862988" lon="-5.359889">
			<ele>1240.000000</ele>
		<time>2015-12-12T03:39:21Z</time>
		</trkpt>

		<trkpt lat="42.862836" lon="-5.360169">
			<ele>1236.000000</ele>
		<time>2015-12-12T03:39:24Z</time>
		</trkpt>

		<trkpt lat="42.862667" lon="-5.360437">
			<ele>1234.000000</ele>
		<time>2015-12-12T03:39:27Z</time>
		</trkpt>

		<trkpt lat="42.862547" lon="-5.360728">
			<ele>1232.000000</ele>
		<time>2015-12-12T03:39:30Z</time>
		</trkpt>

		<trkpt lat="42.862401" lon="-5.361024">
			<ele>1228.000000</ele>
		<time>2015-12-12T03:39:33Z</time>
		</trkpt>

		<trkpt lat="42.862252" lon="-5.361367">
			<ele>1223.000000</ele>
		<time>2015-12-12T03:39:36Z</time>
		</trkpt>

		<trkpt lat="42.862103" lon="-5.361643">
			<ele>1219.000000</ele>
		<time>2015-12-12T03:39:39Z</time>
		</trkpt>

		<trkpt lat="42.861897" lon="-5.361875">
			<ele>1216.000000</ele>
		<time>2015-12-12T03:39:42Z</time>
		</trkpt>

		<trkpt lat="42.861611" lon="-5.361803">
			<ele>1213.000000</ele>
		<time>2015-12-12T03:39:46Z</time>
		</trkpt>

		<trkpt lat="42.861493" lon="-5.361627">
			<ele>1206.000000</ele>
		<time>2015-12-12T03:39:49Z</time>
		</trkpt>

		<trkpt lat="42.861398" lon="-5.361383">
			<ele>1202.000000</ele>
		<time>2015-12-12T03:39:52Z</time>
		</trkpt>

		<trkpt lat="42.861331" lon="-5.361127">
			<ele>1198.000000</ele>
		<time>2015-12-12T03:39:55Z</time>
		</trkpt>

		<trkpt lat="42.861299" lon="-5.360860">
			<ele>1194.000000</ele>
		<time>2015-12-12T03:39:58Z</time>
		</trkpt>

		<trkpt lat="42.861253" lon="-5.360625">
			<ele>1185.000000</ele>
		<time>2015-12-12T03:40:01Z</time>
		</trkpt>

		<trkpt lat="42.861220" lon="-5.360359">
			<ele>1183.000000</ele>
		<time>2015-12-12T03:40:04Z</time>
		</trkpt>

		<trkpt lat="42.861154" lon="-5.360137">
			<ele>1183.000000</ele>
		<time>2015-12-12T03:40:07Z</time>
		</trkpt>

		<trkpt lat="42.861079" lon="-5.359892">
			<ele>1180.000000</ele>
		<time>2015-12-12T03:40:10Z</time>
		</trkpt>

		<trkpt lat="42.861000" lon="-5.359694">
			<ele>1179.000000</ele>
		<time>2015-12-12T03:40:13Z</time>
		</trkpt>

		<trkpt lat="42.860925" lon="-5.359437">
			<ele>1175.000000</ele>
		<time>2015-12-12T03:40:16Z</time>
		</trkpt>

		<trkpt lat="42.860846" lon="-5.359219">
			<ele>1172.000000</ele>
		<time>2015-12-12T03:40:19Z</time>
		</trkpt>

		<trkpt lat="42.860734" lon="-5.358990">
			<ele>1167.000000</ele>
		<time>2015-12-12T03:40:22Z</time>
		</trkpt>

		<trkpt lat="42.860537" lon="-5.358944">
			<ele>1163.000000</ele>
		<time>2015-12-12T03:40:25Z</time>
		</trkpt>

		<trkpt lat="42.860347" lon="-5.359078">
			<ele>1159.000000</ele>
		<time>2015-12-12T03:40:28Z</time>
		</trkpt>

		<trkpt lat="42.860188" lon="-5.359278">
			<ele>1155.000000</ele>
		<time>2015-12-12T03:40:31Z</time>
		</trkpt>

		<trkpt lat="42.860043" lon="-5.359526">
			<ele>1152.000000</ele>
		<time>2015-12-12T03:40:34Z</time>
		</trkpt>

		<trkpt lat="42.859917" lon="-5.359803">
			<ele>1146.000000</ele>
		<time>2015-12-12T03:40:37Z</time>
		</trkpt>

		<trkpt lat="42.859739" lon="-5.360047">
			<ele>1144.000000</ele>
		<time>2015-12-12T03:40:40Z</time>
		</trkpt>

		<trkpt lat="42.859526" lon="-5.360148">
			<ele>1141.000000</ele>
		<time>2015-12-12T03:40:43Z</time>
		</trkpt>

		<trkpt lat="42.859322" lon="-5.360042">
			<ele>1139.000000</ele>
		<time>2015-12-12T03:40:46Z</time>
		</trkpt>

		<trkpt lat="42.859224" lon="-5.359834">
			<ele>1135.000000</ele>
		<time>2015-12-12T03:40:49Z</time>
		</trkpt>

		<trkpt lat="42.859240" lon="-5.359566">
			<ele>1134.000000</ele>
		<time>2015-12-12T03:40:52Z</time>
		</trkpt>

		<trkpt lat="42.859285" lon="-5.359324">
			<ele>1130.000000</ele>
		<time>2015-12-12T03:40:55Z</time>
		</trkpt>

		<trkpt lat="42.859222" lon="-5.359040">
			<ele>1127.000000</ele>
		<time>2015-12-12T03:40:58Z</time>
		</trkpt>

		<trkpt lat="42.859189" lon="-5.358827">
			<ele>1122.000000</ele>
		<time>2015-12-12T03:41:01Z</time>
		</trkpt>

		<trkpt lat="42.859045" lon="-5.358641">
			<ele>1116.000000</ele>
		<time>2015-12-12T03:41:04Z</time>
		</trkpt>

		<trkpt lat="42.858864" lon="-5.358504">
			<ele>1112.000000</ele>
		<time>2015-12-12T03:41:07Z</time>
		</trkpt>

		<trkpt lat="42.858664" lon="-5.358352">
			<ele>1108.000000</ele>
		<time>2015-12-12T03:41:10Z</time>
		</trkpt>

		<trkpt lat="42.858498" lon="-5.358204">
			<ele>1104.000000</ele>
		<time>2015-12-12T03:41:13Z</time>
		</trkpt>

		<trkpt lat="42.858418" lon="-5.358093">
			<ele>1103.000000</ele>
		<time>2015-12-12T03:41:16Z</time>
		</trkpt>

		<trkpt lat="42.858313" lon="-5.357975">
			<ele>1103.000000</ele>
		<time>2015-12-12T03:41:20Z</time>
		</trkpt>

		<trkpt lat="42.858245" lon="-5.357892">
			<ele>1101.000000</ele>
		<time>2015-12-12T03:41:24Z</time>
		</trkpt>

		<trkpt lat="42.858196" lon="-5.357818">
			<ele>1100.000000</ele>
		<time>2015-12-12T03:41:27Z</time>
		</trkpt>

		<trkpt lat="42.858147" lon="-5.357727">
			<ele>1099.000000</ele>
		<time>2015-12-12T03:41:31Z</time>
		</trkpt>

		<trkpt lat="42.858126" lon="-5.357755">
			<ele>1100.000000</ele>
		<time>2015-12-12T03:43:08Z</time>
		</trkpt>

		<trkpt lat="42.858094" lon="-5.357746">
			<ele>1100.000000</ele>
		<time>2015-12-12T03:43:12Z</time>
		</trkpt>

		<trkpt lat="42.858074" lon="-5.357772">
			<ele>1101.000000</ele>
		<time>2015-12-12T03:43:59Z</time>
		</trkpt>

		<trkpt lat="42.858100" lon="-5.357751">
			<ele>1102.000000</ele>
		<time>2015-12-12T03:44:40Z</time>
		</trkpt>

		<trkpt lat="42.858067" lon="-5.357766">
			<ele>1099.000000</ele>
		<time>2015-12-12T03:45:43Z</time>
		</trkpt>

		<trkpt lat="42.858039" lon="-5.357761">
			<ele>1098.000000</ele>
		<time>2015-12-12T03:45:53Z</time>
		</trkpt>

		<trkpt lat="42.858042" lon="-5.357722">
			<ele>1095.000000</ele>
		<time>2015-12-12T03:46:27Z</time>
		</trkpt>

		<trkpt lat="42.858042" lon="-5.357684">
			<ele>1097.000000</ele>
		<time>2015-12-12T03:46:53Z</time>
		</trkpt>

		<trkpt lat="42.858057" lon="-5.357650">
			<ele>1097.000000</ele>
		<time>2015-12-12T03:47:14Z</time>
		</trkpt>

		<trkpt lat="42.858080" lon="-5.357674">
			<ele>1100.000000</ele>
		<time>2015-12-12T03:47:28Z</time>
		</trkpt>

		<trkpt lat="42.858101" lon="-5.357707">
			<ele>1097.000000</ele>
		<time>2015-12-12T03:47:32Z</time>
		</trkpt>

		<trkpt lat="42.858120" lon="-5.357736">
			<ele>1097.000000</ele>
		<time>2015-12-12T03:47:40Z</time>
		</trkpt>

		<trkpt lat="42.858142" lon="-5.357761">
			<ele>1099.000000</ele>
		<time>2015-12-12T03:48:09Z</time>
		</trkpt>

		<trkpt lat="42.858145" lon="-5.357799">
			<ele>1098.000000</ele>
		<time>2015-12-12T03:48:35Z</time>
		</trkpt>

		<trkpt lat="42.858158" lon="-5.357764">
			<ele>1097.000000</ele>
		<time>2015-12-12T03:48:41Z</time>
		</trkpt>

		<trkpt lat="42.858178" lon="-5.357739">
			<ele>1097.000000</ele>
		<time>2015-12-12T03:48:50Z</time>
		</trkpt>

		<trkpt lat="42.858197" lon="-5.357709">
			<ele>1097.000000</ele>
		<time>2015-12-12T03:49:06Z</time>
		</trkpt>

		<trkpt lat="42.858168" lon="-5.357719">
			<ele>1097.000000</ele>
		<time>2015-12-12T03:49:09Z</time>
		</trkpt>

		<trkpt lat="42.858135" lon="-5.357734">
			<ele>1097.000000</ele>
		<time>2015-12-12T03:49:12Z</time>
		</trkpt>

		<trkpt lat="42.858136" lon="-5.357774">
			<ele>1096.000000</ele>
		<time>2015-12-12T03:49:19Z</time>
		</trkpt>

		<trkpt lat="42.858155" lon="-5.357804">
			<ele>1095.000000</ele>
		<time>2015-12-12T03:49:22Z</time>
		</trkpt>

		<trkpt lat="42.858177" lon="-5.357782">
			<ele>1095.000000</ele>
		<time>2015-12-12T03:49:29Z</time>
		</trkpt>

	</trkseg>
</trk>
</gpx>

